createdAt,value
2023-02-03T00:00:00.310Z,86.12
2023-02-03T00:05:00.791Z,85.95
2023-02-03T00:10:01.268Z,85.88
2023-02-03T00:15:00.312Z,85.77
2023-02-03T00:20:00.305Z,85.50
2023-02-03T00:25:00.336Z,85.36
2023-02-03T00:30:00.729Z,85.24
2023-02-03T00:35:00.321Z,85.52
2023-02-03T00:40:00.823Z,85.42
2023-02-03T00:45:01.131Z,85.62
2023-02-03T00:50:00.290Z,85.67
2023-02-03T00:55:00.320Z,85.40
2023-02-03T01:00:00.752Z,85.37
2023-02-03T01:05:00.338Z,85.27
2023-02-03T01:10:00.333Z,84.84
2023-02-03T01:15:00.330Z,84.76
2023-02-03T01:20:00.391Z,84.58
2023-02-03T01:25:00.380Z,84.63
2023-02-03T01:30:00.597Z,84.46
2023-02-03T01:35:00.322Z,84.12
2023-02-03T01:40:00.333Z,84.30
2023-02-03T01:45:00.314Z,84.43
2023-02-03T01:50:10.246Z,84.56
2023-02-03T01:55:06.018Z,84.47
2023-02-03T02:00:04.158Z,84.32
2023-02-03T02:05:14.949Z,84.27
2023-02-03T02:10:00.512Z,84.13
2023-02-03T02:15:01.008Z,84.12
2023-02-03T02:20:11.313Z,83.31
2023-02-03T02:25:17.755Z,83.11
2023-02-03T02:30:10.237Z,82.82
2023-02-03T02:35:14.011Z,82.43
2023-02-03T02:40:20.220Z,81.98
2023-02-03T02:45:08.350Z,81.85
2023-02-03T02:50:05.947Z,82.09
2023-02-03T02:55:09.352Z,82.41
2023-02-03T03:00:00.828Z,82.58
2023-02-03T03:05:03.668Z,82.79
2023-02-03T03:10:06.598Z,83.10
2023-02-03T03:15:06.635Z,83.16
2023-02-03T03:20:06.853Z,83.11
2023-02-03T03:25:08.713Z,83.18
2023-02-03T03:30:07.553Z,83.21
2023-02-03T03:35:02.826Z,82.83
2023-02-03T03:40:08.428Z,82.79
2023-02-03T03:45:15.874Z,82.86
2023-02-03T03:50:03.609Z,82.58
2023-02-03T03:55:03.691Z,82.36
2023-02-03T04:00:04.577Z,82.19
2023-02-03T04:05:02.231Z,82.29
2023-02-03T04:10:01.395Z,81.98
2023-02-03T04:15:00.314Z,81.97
2023-02-03T04:20:00.616Z,82.12
2023-02-03T04:25:00.323Z,82.05
2023-02-03T04:30:00.931Z,82.00
2023-02-03T04:35:01.126Z,82.01
2023-02-03T04:40:00.410Z,81.79
2023-02-03T04:45:00.329Z,81.73
2023-02-03T04:50:00.338Z,81.84
2023-02-03T04:55:00.330Z,81.69
2023-02-03T05:00:00.421Z,81.89
2023-02-03T05:05:00.351Z,82.09
2023-02-03T05:10:00.344Z,81.94
2023-02-03T05:15:00.326Z,81.60
2023-02-03T05:20:00.313Z,81.96
2023-02-03T05:25:02.070Z,81.99
2023-02-03T05:30:00.404Z,82.03
2023-02-03T05:35:00.343Z,82.19
2023-02-03T05:40:00.430Z,82.51
2023-02-03T05:45:00.299Z,82.77
2023-02-03T05:50:00.317Z,82.93
2023-02-03T05:55:00.301Z,82.94
2023-02-03T06:00:00.413Z,83.11
2023-02-03T06:05:00.310Z,83.31
2023-02-03T06:10:00.378Z,83.22
2023-02-03T06:15:00.322Z,83.53
2023-02-03T06:20:02.798Z,83.69
2023-02-03T06:25:00.410Z,83.81
2023-02-03T06:30:00.413Z,83.94
2023-02-03T06:35:00.328Z,83.81
2023-02-03T06:40:00.927Z,83.95
2023-02-03T06:45:00.350Z,83.97
2023-02-03T06:50:00.615Z,83.78
2023-02-03T06:55:00.298Z,84.04
2023-02-03T07:00:00.402Z,84.15
2023-02-03T07:05:00.354Z,84.07
2023-02-03T07:10:00.826Z,84.09
2023-02-03T07:15:00.318Z,84.26
2023-02-03T07:20:00.572Z,84.36
2023-02-03T07:25:00.303Z,84.45
2023-02-03T07:30:00.378Z,84.68
2023-02-03T07:35:00.304Z,84.75
2023-02-03T07:40:00.354Z,84.79
2023-02-03T07:45:00.347Z,84.71
2023-02-03T07:50:00.353Z,84.71
2023-02-03T07:55:00.291Z,84.69
2023-02-03T08:00:00.382Z,84.54
2023-02-03T08:05:00.387Z,84.44
2023-02-03T08:10:00.762Z,84.56
2023-02-03T08:15:00.350Z,84.51
2023-02-03T08:20:01.018Z,84.39
2023-02-03T08:25:00.350Z,84.32
2023-02-03T08:30:00.439Z,84.17
2023-02-03T08:35:00.375Z,84.28
2023-02-03T08:40:00.713Z,84.22
2023-02-03T08:45:00.419Z,84.19
2023-02-03T08:50:00.582Z,84.17
2023-02-03T08:55:00.335Z,84.13
2023-02-03T09:00:01.289Z,84.04
2023-02-03T09:05:00.566Z,84.17
2023-02-03T09:10:00.343Z,84.02
2023-02-03T09:15:00.341Z,84.34
2023-02-03T09:20:00.489Z,83.98
2023-02-03T09:25:00.347Z,84.26
2023-02-03T09:30:00.370Z,83.97
2023-02-03T09:35:00.357Z,83.48
2023-02-03T09:40:00.309Z,83.34
2023-02-03T09:45:03.686Z,83.38
2023-02-03T09:50:03.659Z,83.05
2023-02-03T09:55:04.585Z,82.79
2023-02-03T10:00:12.522Z,82.81
2023-02-03T10:05:15.570Z,82.93
2023-02-03T10:10:08.243Z,83.12
2023-02-03T10:15:20.251Z,82.70
2023-02-03T10:20:09.959Z,82.26
2023-02-03T10:25:10.873Z,82.06
2023-02-03T10:30:06.990Z,81.90
2023-02-03T10:35:00.356Z,82.02
2023-02-03T10:40:01.033Z,81.45
2023-02-03T10:45:00.570Z,81.31
2023-02-03T10:50:05.620Z,81.05
2023-02-03T10:55:07.039Z,81.10
2023-02-03T11:00:21.912Z,80.95
2023-02-03T11:05:10.689Z,80.84
2023-02-03T11:10:00.440Z,80.63
2023-02-03T11:15:04.271Z,80.37
2023-02-03T11:20:11.871Z,79.95
2023-02-03T11:25:02.388Z,80.23
2023-02-03T11:30:20.213Z,80.09
2023-02-03T11:35:03.561Z,79.88
2023-02-03T11:40:07.825Z,79.74
2023-02-03T11:45:12.821Z,79.72
2023-02-03T11:50:18.679Z,79.69
2023-02-03T11:55:17.184Z,79.41
2023-02-03T12:00:17.936Z,79.04
2023-02-03T12:05:19.739Z,79.58
2023-02-03T12:10:08.061Z,79.32
2023-02-03T12:15:01.336Z,79.53
2023-02-03T12:20:20.246Z,79.45
2023-02-03T12:25:03.677Z,79.23
2023-02-03T12:30:08.634Z,79.18
2023-02-03T12:35:03.636Z,79.34
2023-02-03T12:40:08.212Z,78.96
2023-02-03T12:45:04.179Z,79.20
2023-02-03T12:50:06.267Z,79.35
2023-02-03T12:55:06.017Z,80.36
2023-02-03T13:00:10.340Z,80.63
2023-02-03T13:05:13.923Z,80.44
2023-02-03T13:10:05.158Z,80.31
2023-02-03T13:15:10.338Z,80.34
2023-02-03T13:20:05.714Z,80.57
2023-02-03T13:25:06.562Z,80.78
2023-02-03T13:30:10.407Z,81.29
2023-02-03T13:35:03.614Z,83.02
2023-02-03T13:40:13.151Z,83.71
2023-02-03T13:45:12.170Z,84.86
2023-02-03T13:50:03.679Z,85.08
2023-02-03T13:55:01.675Z,85.89
2023-02-03T14:00:03.879Z,85.55
2023-02-03T14:05:00.388Z,84.67
2023-02-03T14:10:11.418Z,84.20
2023-02-03T14:15:20.225Z,83.61
2023-02-03T14:20:03.010Z,83.46
2023-02-03T14:25:05.769Z,83.35
2023-02-03T14:30:13.104Z,83.20
2023-02-03T14:35:00.382Z,83.02
2023-02-03T14:40:11.549Z,82.96
2023-02-03T14:45:07.955Z,82.72
2023-02-03T14:50:10.283Z,82.54
2023-02-03T14:55:08.386Z,82.54
2023-02-03T15:00:07.365Z,82.65
2023-02-03T15:05:11.342Z,82.68
2023-02-03T15:10:00.419Z,82.76
2023-02-03T15:15:12.391Z,82.52
2023-02-03T15:20:00.357Z,82.53
2023-02-03T15:25:02.869Z,82.47
2023-02-03T15:30:20.228Z,82.42
2023-02-03T15:35:03.712Z,82.36
2023-02-03T15:40:08.739Z,82.41
2023-02-03T15:45:07.373Z,82.52
2023-02-03T15:50:20.221Z,82.48
2023-02-03T15:55:09.736Z,82.39
2023-02-03T16:00:09.527Z,82.07
2023-02-03T16:05:13.582Z,82.21
2023-02-03T16:10:00.502Z,82.06
2023-02-03T16:15:00.935Z,82.03
2023-02-03T16:30:04.270Z,82.53
2023-02-03T16:35:00.584Z,82.53
2023-02-03T16:40:00.569Z,82.32
2023-02-03T16:45:01.303Z,82.26
2023-02-03T16:50:00.572Z,82.46
2023-02-03T16:55:00.570Z,82.91
2023-02-03T17:00:02.619Z,83.78
2023-02-03T17:05:00.786Z,83.68
2023-02-03T17:10:00.607Z,83.70
2023-02-03T17:15:00.574Z,83.64
2023-02-03T17:20:00.704Z,83.63
2023-02-03T17:25:00.625Z,83.68
2023-02-03T17:30:00.733Z,83.68
2023-02-03T17:35:00.606Z,83.61
2023-02-03T17:55:00.841Z,84.45
2023-02-03T18:00:00.935Z,84.59
2023-02-03T18:05:00.551Z,84.23
2023-02-03T18:10:00.749Z,84.03
2023-02-03T18:15:00.672Z,83.67
2023-02-03T18:20:00.720Z,83.40
2023-02-03T18:25:00.563Z,82.88
2023-02-03T18:30:00.735Z,82.40
2023-02-03T18:35:01.073Z,82.27
2023-02-03T18:40:00.567Z,81.93
2023-02-03T18:45:00.565Z,81.57
2023-02-03T18:50:00.584Z,80.07
2023-02-03T18:55:00.566Z,79.91
2023-02-03T19:00:02.866Z,79.54
2023-02-03T19:05:00.572Z,79.53
2023-02-03T19:10:00.822Z,79.67
2023-02-03T19:15:00.548Z,78.94
2023-02-03T19:20:00.604Z,78.87
2023-02-03T19:25:00.563Z,78.56
2023-02-03T19:30:01.847Z,78.62
2023-02-03T19:35:00.554Z,79.57
2023-02-03T19:40:00.627Z,79.36
2023-02-03T19:45:00.635Z,80.29
2023-02-03T19:50:00.585Z,80.70
2023-02-03T19:55:00.639Z,81.18
2023-02-03T20:00:01.150Z,81.90
2023-02-03T20:05:00.743Z,82.42
2023-02-03T20:10:00.611Z,82.78
2023-02-03T20:15:00.632Z,83.04
2023-02-03T20:20:01.153Z,83.40
2023-02-03T20:25:00.577Z,83.40
2023-02-03T20:30:00.603Z,83.53
2023-02-03T20:35:00.580Z,83.82
2023-02-03T20:40:01.833Z,83.77
2023-02-03T20:45:00.782Z,83.21
2023-02-03T20:50:00.601Z,82.57
2023-02-03T20:55:00.590Z,81.96
2023-02-03T21:00:01.158Z,80.55
2023-02-03T21:05:15.270Z,80.10
2023-02-03T21:10:15.914Z,78.95
2023-02-03T21:15:00.600Z,79.26
2023-02-03T21:20:00.613Z,79.27
2023-02-03T21:25:00.688Z,79.67
2023-02-03T21:30:12.426Z,80.19
2023-02-03T21:35:00.602Z,79.93
2023-02-03T21:40:00.607Z,80.48
2023-02-03T21:45:00.632Z,79.87
2023-02-03T21:50:01.108Z,79.49
2023-02-03T21:55:00.605Z,79.22
2023-02-03T22:00:21.479Z,79.00
2023-02-03T22:05:01.612Z,78.75
2023-02-03T22:10:00.592Z,78.82
2023-02-03T22:15:00.599Z,78.44
2023-02-03T22:20:00.598Z,79.06
2023-02-03T22:25:01.488Z,79.41
2023-02-03T22:30:00.638Z,78.82
2023-02-03T22:35:00.569Z,78.61
2023-02-03T22:40:01.370Z,78.66
2023-02-03T22:45:00.614Z,78.74
2023-02-03T22:50:00.840Z,78.79
2023-02-03T22:55:00.611Z,79.36
2023-02-03T23:00:01.950Z,80.90
2023-02-03T23:05:00.743Z,81.50
2023-02-03T23:10:00.601Z,81.83
2023-02-03T23:15:00.667Z,82.37
2023-02-03T23:20:00.593Z,82.91
2023-02-03T23:25:00.624Z,83.19
2023-02-03T23:30:00.717Z,83.55
2023-02-03T23:35:01.002Z,83.80
2023-02-03T23:40:00.720Z,84.70
2023-02-03T23:45:01.096Z,84.58
2023-02-03T23:50:00.585Z,84.81
2023-02-03T23:55:02.338Z,85.11
